createdAt,value
2023-05-11T00:09:48.820Z,12.9
2023-05-11T00:19:51.281Z,12.9
2023-05-11T00:29:53.121Z,12.9
2023-05-11T00:39:55.298Z,12.8
2023-05-11T00:49:57.571Z,12.8
2023-05-11T01:10:02.164Z,12.8
2023-05-11T01:20:04.391Z,12.8
2023-05-11T01:30:06.693Z,12.6
2023-05-11T01:40:08.678Z,12.7
2023-05-11T01:50:10.681Z,12.7
2023-05-11T02:00:13.223Z,12.6
2023-05-11T02:10:15.774Z,12.4
2023-05-11T02:20:18.390Z,12.5
2023-05-11T02:30:20.166Z,12.5
2023-05-11T02:40:22.540Z,12.5
2023-05-11T02:50:24.399Z,12.5
2023-05-11T03:00:26.384Z,12.5
2023-05-11T03:10:28.646Z,12.4
2023-05-11T03:20:31.203Z,12.5
2023-05-11T03:30:33.426Z,12.5
2023-05-11T03:40:35.239Z,12.4
2023-05-11T04:00:39.447Z,12.3
2023-05-11T04:10:41.918Z,12.2
2023-05-11T04:20:43.734Z,12.2
2023-05-11T04:40:47.718Z,12.2
2023-05-11T05:00:52.373Z,12.1
2023-05-11T05:20:57.213Z,12.2
2023-05-11T05:41:01.674Z,12.5
2023-05-11T06:01:06.664Z,12.5
2023-05-11T06:21:11.249Z,12.9
2023-05-11T06:41:14.986Z,14.6
2023-05-11T07:01:18.983Z,14.4
2023-05-11T07:11:21.445Z,14.6
2023-05-11T07:31:25.703Z,16.2
2023-05-11T07:41:28.245Z,16.4
2023-05-11T08:01:32.377Z,15.2
2023-05-11T08:11:34.327Z,15.4
2023-05-11T08:21:36.613Z,15.5
2023-05-11T08:31:38.757Z,15
2023-05-11T08:41:41.014Z,15.3
2023-05-11T08:51:43.303Z,16.1
2023-05-11T09:01:45.833Z,16
2023-05-11T09:11:48.400Z,15.7
2023-05-11T09:21:50.861Z,16.5
2023-05-11T09:31:53.567Z,17.2
2023-05-11T09:41:56.184Z,17.8
2023-05-11T09:51:58.259Z,18.2
2023-05-11T10:02:00.653Z,17.4
2023-05-11T10:12:02.430Z,18.1
2023-05-11T10:22:04.934Z,18.1
2023-05-11T10:32:07.451Z,17.7
2023-05-11T10:42:09.228Z,17.9
2023-05-11T10:52:11.290Z,18.2
2023-05-11T11:02:13.136Z,18.4
2023-05-11T11:12:15.421Z,17.6
2023-05-11T11:22:18.080Z,17.2
2023-05-11T11:32:20.485Z,17
2023-05-11T11:42:22.589Z,16.9
2023-05-11T11:52:24.752Z,16.5
2023-05-11T12:02:27.166Z,16.6
2023-05-11T12:12:29.745Z,16.6
2023-05-11T12:22:32.112Z,16.7
2023-05-11T12:32:34.582Z,16.5
2023-05-11T12:42:37.011Z,16.7
2023-05-11T12:52:39.144Z,16.6
2023-05-11T13:02:41.271Z,16.4
2023-05-11T13:22:45.666Z,15.8
2023-05-11T13:32:47.537Z,15.5
2023-05-11T13:42:49.776Z,15.3
2023-05-11T13:52:52.110Z,15.4
2023-05-11T14:02:54.007Z,15.5
2023-05-11T14:12:55.691Z,15.4
2023-05-11T14:22:57.640Z,15.4
2023-05-11T14:32:59.537Z,15.3
2023-05-11T14:43:01.346Z,15
2023-05-11T14:53:03.167Z,15
2023-05-11T15:03:04.823Z,15
2023-05-11T15:04:32.196Z,15
2023-05-11T15:13:14.886Z,14.7
2023-05-11T18:54:03.852Z,13.2
2023-05-11T19:04:05.582Z,13.2
2023-05-11T19:14:07.664Z,13.2
2023-05-11T19:24:10.071Z,13.1
2023-05-11T19:44:14.760Z,13.1
2023-05-11T20:04:19.436Z,13.1
2023-05-11T20:14:21.348Z,13.1
2023-05-11T20:24:23.322Z,13.1
2023-05-11T20:34:25.909Z,13.1
2023-05-11T20:44:28.465Z,13
2023-05-11T21:04:31.852Z,12.9
2023-05-11T21:14:33.980Z,12.9
2023-05-11T21:24:36.120Z,12.8
2023-05-11T21:34:38.244Z,12.8
2023-05-11T21:44:40.219Z,12.8
2023-05-11T22:04:44.550Z,12.7
2023-05-11T22:14:47.201Z,12.7
2023-05-11T22:24:48.978Z,12.7
2023-05-11T22:34:51.579Z,12.7
2023-05-11T22:44:53.710Z,12.7
2023-05-11T22:54:55.807Z,12.8
2023-05-11T23:15:00.130Z,12.8
2023-05-11T23:25:02.479Z,12.8
2023-05-11T23:35:04.633Z,12.9
2023-05-11T23:45:06.650Z,12.9
2023-05-11T23:55:08.656Z,12.9
